South Daytona, FL

12:22 AM EDT on October 25, 2014 (GMT -0400)
Daytona Beach International | Change Station
CLOSE
Current Station
Airport
Location: Daytona Beach,
Elevation: 33 ft
Nearby Weather Stations

Elev 33 ft 29.18 °N, 81.06 °W | Updated 29 minutes ago

Mostly Cloudy
Mostly Cloudy
64 °F
Feels Like 64 °F
N
7
Wind Variable Wind from NW

Today
High -- | Low -- °F
--% Chance of Precip.
Yesterday
High -- | Low -- °F
Precip. -- in
7:31 AM 6:44 PM
New Moon, 2% visible
Pressure 29.98 in
Visibility 10.0 miles
Clouds Scattered Clouds 5000 ft
Dew Point 57 °F
Humidity 78%
Rainfall 0.00 in
Snow Depth Not available.
UV 0 out of 12
Pollen 5.40 out of 12
Air Quality Not available.
Flu Activity Local Activity
METAR KDAB 250353Z 31006KT 10SM SCT050 18/14 A2998 RMK AO2 SLP152 T01780139

More Conditions Fewer Conditions

Pressure 29.98 in
Visibility 10.0 miles
Clouds Scattered Clouds 5000 ft
Dew Point 57 °F
Humidity 78%
Rainfall 0.00 in
Snow Depth Not available.
UV 0 out of 12
Pollen 5.40 out of 12
Air Quality Not available.
Flu Activity Local Activity
METAR KDAB 250353Z 31006KT 10SM SCT050 18/14 A2998 RMK AO2 SLP152 T01780139

More Conditions Fewer Conditions

Nowcast | as of 10:46 PM EDT on October 24, 2014

Expect a cool evening under partly cloudy skies. A little more cloud cover is possible along the space and Treasure Coast tonight... however no rain is forecast. Lows will range from the upper 50s to lower 60s by daybreak. Additional details...including graphics are available online at: http://www.Srh.NOAA.Gov/mlb/blog.Php

×

10-Day Weather Forecast

Almanac

Astronomy

Oct. 25, 2014 Rise Set
Actual Time 7:31 AM EDT 6:44 PM EDT
Civil Twilight 7:07 AM EDT 7:08 PM EDT
Nautical Twilight 6:39 AM EDT 7:36 PM EDT
Astronomical Twilight 6:12 AM EDT 8:03 PM EDT
Moon 9:03 AM EDT 8:12 PM EDT
Length of Visible Light 12h 00m
Length of Day
11h 12m
Tomorrow will be 1m 36s shorter.
New Moon, 2% of the Moon is Illuminated
Today
New Moon
Oct 30
First Quarter
Nov 6
Full
Nov 14
Last Quarter
Nov 22
New

Today's Extremes

State Highs State Lows

Community

WunderPhotos

Upload Photos

1,764,781 photos uploaded!

Nearby

Snow Depth

Station Depth Elevation
No new snow has been reported.

Earthquake Activity

City Distance Mag. Time & Date
No recent earthquake activity has been reported nearby.
Minimum magnitude displayed is 2.5.

Coastal Water Temperatures

Place Temperature
Trident Pier, FL 79.0 °F
Mayport (Bar Pilots Dock), FL 77.0 °F
Fernandina Beach, FL 73.9 °F
McKay Bay Entrance, FL 79.0 °F

Nearby Weather Stations